sensor_id;sensor_type;location;lat;lon;timestamp;P1;durP1;ratioP1;P2;durP2;ratioP2
27505;SDS011;14939;43.596;1.320;2022-09-28T00:00:57;23.50;;;3.42;;
27505;SDS011;14939;43.596;1.320;2022-09-28T00:03:23;21.73;;;3.53;;
27505;SDS011;14939;43.596;1.320;2022-09-28T00:05:49;25.08;;;3.42;;
27505;SDS011;14939;43.596;1.320;2022-09-28T00:08:15;24.23;;;3.75;;
27505;SDS011;14939;43.596;1.320;2022-09-28T00:10:40;20.25;;;3.38;;
27505;SDS011;14939;43.596;1.320;2022-09-28T00:13:07;29.23;;;3.80;;
27505;SDS011;14939;43.596;1.320;2022-09-28T00:15:33;25.02;;;3.63;;
27505;SDS011;14939;43.596;1.320;2022-09-28T00:17:59;19.05;;;3.53;;
27505;SDS011;14939;43.596;1.320;2022-09-28T00:20:25;17.63;;;3.63;;
27505;SDS011;14939;43.596;1.320;2022-09-28T00:22:50;22.33;;;3.25;;
27505;SDS011;14939;43.596;1.320;2022-09-28T00:25:16;21.08;;;3.42;;
27505;SDS011;14939;43.596;1.320;2022-09-28T00:27:42;21.20;;;3.35;;
27505;SDS011;14939;43.596;1.320;2022-09-28T00:30:13;18.33;;;2.90;;
27505;SDS011;14939;43.596;1.320;2022-09-28T00:32:40;24.92;;;3.03;;
27505;SDS011;14939;43.596;1.320;2022-09-28T00:35:06;19.65;;;2.83;;
27505;SDS011;14939;43.596;1.320;2022-09-28T00:37:31;16.88;;;2.95;;
27505;SDS011;14939;43.596;1.320;2022-09-28T00:39:57;19.00;;;3.22;;
27505;SDS011;14939;43.596;1.320;2022-09-28T00:42:24;18.95;;;2.78;;
27505;SDS011;14939;43.596;1.320;2022-09-28T00:44:53;17.77;;;2.70;;
27505;SDS011;14939;43.596;1.320;2022-09-28T00:47:30;22.15;;;2.67;;
27505;SDS011;14939;43.596;1.320;2022-09-28T00:55:18;14.57;;;2.22;;
27505;SDS011;14939;43.596;1.320;2022-09-28T00:58:06;17.25;;;2.28;;
27505;SDS011;14939;43.596;1.320;2022-09-28T01:00:35;13.90;;;2.22;;
27505;SDS011;14939;43.596;1.320;2022-09-28T01:03:01;16.02;;;2.08;;
27505;SDS011;14939;43.596;1.320;2022-09-28T01:05:28;14.40;;;2.28;;
27505;SDS011;14939;43.596;1.320;2022-09-28T01:07:54;16.38;;;2.08;;
27505;SDS011;14939;43.596;1.320;2022-09-28T01:10:21;13.07;;;1.80;;
27505;SDS011;14939;43.596;1.320;2022-09-28T01:12:47;15.55;;;1.90;;
27505;SDS011;14939;43.596;1.320;2022-09-28T01:15:12;10.73;;;1.92;;
27505;SDS011;14939;43.596;1.320;2022-09-28T01:28:52;6.85;;;1.30;;
27505;SDS011;14939;43.596;1.320;2022-09-28T01:31:25;6.00;;;1.20;;
27505;SDS011;14939;43.596;1.320;2022-09-28T01:34:00;7.65;;;1.30;;
27505;SDS011;14939;43.596;1.320;2022-09-28T01:36:34;8.68;;;1.48;;
27505;SDS011;14939;43.596;1.320;2022-09-28T01:39:48;8.43;;;1.40;;
27505;SDS011;14939;43.596;1.320;2022-09-28T01:41:58;4.03;;;0.90;;
27505;SDS011;14939;43.596;1.320;2022-09-28T01:44:29;5.28;;;0.98;;
27505;SDS011;14939;43.596;1.320;2022-09-28T01:46:57;5.78;;;0.85;;
27505;SDS011;14939;43.596;1.320;2022-09-28T01:49:35;6.82;;;0.90;;
27505;SDS011;14939;43.596;1.320;2022-09-28T01:52:15;6.53;;;1.05;;
27505;SDS011;14939;43.596;1.320;2022-09-28T01:57:20;4.38;;;0.93;;
27505;SDS011;14939;43.596;1.320;2022-09-28T01:59:56;6.13;;;0.85;;
27505;SDS011;14939;43.596;1.320;2022-09-28T02:02:29;2.55;;;0.80;;
27505;SDS011;14939;43.596;1.320;2022-09-28T02:05:00;3.65;;;1.15;;
27505;SDS011;14939;43.596;1.320;2022-09-28T02:07:37;3.20;;;0.70;;
27505;SDS011;14939;43.596;1.320;2022-09-28T02:10:13;3.58;;;0.60;;
27505;SDS011;14939;43.596;1.320;2022-09-28T02:12:54;2.95;;;0.55;;
27505;SDS011;14939;43.596;1.320;2022-09-28T02:15:41;5.53;;;0.80;;
27505;SDS011;14939;43.596;1.320;2022-09-28T02:18:17;3.33;;;0.60;;
27505;SDS011;14939;43.596;1.320;2022-09-28T02:20:45;4.93;;;0.77;;
27505;SDS011;14939;43.596;1.320;2022-09-28T02:23:18;4.63;;;0.88;;
27505;SDS011;14939;43.596;1.320;2022-09-28T02:25:48;2.65;;;0.55;;
27505;SDS011;14939;43.596;1.320;2022-09-28T02:28:17;2.00;;;0.50;;
27505;SDS011;14939;43.596;1.320;2022-09-28T02:30:43;6.15;;;0.73;;
27505;SDS011;14939;43.596;1.320;2022-09-28T02:33:20;2.42;;;0.60;;
27505;SDS011;14939;43.596;1.320;2022-09-28T02:36:00;2.00;;;0.60;;
27505;SDS011;14939;43.596;1.320;2022-09-28T02:38:27;3.72;;;0.70;;
27505;SDS011;14939;43.596;1.320;2022-09-28T02:44:15;2.33;;;0.70;;
27505;SDS011;14939;43.596;1.320;2022-09-28T02:46:58;2.17;;;0.60;;
27505;SDS011;14939;43.596;1.320;2022-09-28T02:49:43;4.25;;;0.52;;
27505;SDS011;14939;43.596;1.320;2022-09-28T03:00:21;2.90;;;0.50;;
27505;SDS011;14939;43.596;1.320;2022-09-28T03:03:00;4.03;;;0.55;;
27505;SDS011;14939;43.596;1.320;2022-09-28T03:10:57;4.80;;;0.80;;
27505;SDS011;14939;43.596;1.320;2022-09-28T03:13:28;3.03;;;0.60;;
27505;SDS011;14939;43.596;1.320;2022-09-28T03:18:51;2.05;;;0.63;;
27505;SDS011;14939;43.596;1.320;2022-09-28T03:21:17;2.05;;;0.60;;
27505;SDS011;14939;43.596;1.320;2022-09-28T03:23:42;2.22;;;0.68;;
27505;SDS011;14939;43.596;1.320;2022-09-28T03:26:11;1.33;;;0.60;;
27505;SDS011;14939;43.596;1.320;2022-09-28T03:28:37;1.65;;;0.80;;
27505;SDS011;14939;43.596;1.320;2022-09-28T03:31:03;2.95;;;0.70;;
27505;SDS011;14939;43.596;1.320;2022-09-28T03:33:29;2.95;;;0.70;;
27505;SDS011;14939;43.596;1.320;2022-09-28T03:35:54;2.15;;;0.70;;
27505;SDS011;14939;43.596;1.320;2022-09-28T03:38:20;3.17;;;0.60;;
27505;SDS011;14939;43.596;1.320;2022-09-28T03:40:52;1.48;;;0.60;;
27505;SDS011;14939;43.596;1.320;2022-09-28T03:43:19;3.03;;;0.60;;
27505;SDS011;14939;43.596;1.320;2022-09-28T03:45:52;2.20;;;0.65;;
27505;SDS011;14939;43.596;1.320;2022-09-28T03:48:29;2.35;;;0.90;;
27505;SDS011;14939;43.596;1.320;2022-09-28T03:50:57;2.47;;;0.75;;
27505;SDS011;14939;43.596;1.320;2022-09-28T03:53:25;3.53;;;0.80;;
27505;SDS011;14939;43.596;1.320;2022-09-28T03:55:52;2.47;;;0.60;;
27505;SDS011;14939;43.596;1.320;2022-09-28T03:58:18;2.60;;;0.80;;
27505;SDS011;14939;43.596;1.320;2022-09-28T04:00:45;1.13;;;0.65;;
27505;SDS011;14939;43.596;1.320;2022-09-28T04:03:11;2.22;;;0.73;;
27505;SDS011;14939;43.596;1.320;2022-09-28T04:05:37;2.08;;;0.63;;
27505;SDS011;14939;43.596;1.320;2022-09-28T04:08:02;1.25;;;0.55;;
27505;SDS011;14939;43.596;1.320;2022-09-28T04:10:28;3.47;;;0.63;;
27505;SDS011;14939;43.596;1.320;2022-09-28T04:12:54;1.80;;;0.70;;
27505;SDS011;14939;43.596;1.320;2022-09-28T04:15:24;0.85;;;0.60;;
27505;SDS011;14939;43.596;1.320;2022-09-28T04:17:50;2.25;;;0.60;;
27505;SDS011;14939;43.596;1.320;2022-09-28T04:20:16;1.00;;;0.80;;
27505;SDS011;14939;43.596;1.320;2022-09-28T04:22:42;1.35;;;0.88;;
27505;SDS011;14939;43.596;1.320;2022-09-28T04:25:08;1.75;;;0.80;;
27505;SDS011;14939;43.596;1.320;2022-09-28T04:27:34;0.85;;;0.80;;
27505;SDS011;14939;43.596;1.320;2022-09-28T04:30:18;2.90;;;1.08;;
27505;SDS011;14939;43.596;1.320;2022-09-28T04:32:47;2.35;;;1.17;;
27505;SDS011;14939;43.596;1.320;2022-09-28T04:35:12;3.58;;;1.70;;
27505;SDS011;14939;43.596;1.320;2022-09-28T04:37:38;3.42;;;1.70;;
27505;SDS011;14939;43.596;1.320;2022-09-28T04:40:04;3.20;;;1.70;;
27505;SDS011;14939;43.596;1.320;2022-09-28T04:42:30;3.28;;;1.15;;
27505;SDS011;14939;43.596;1.320;2022-09-28T04:44:56;5.03;;;1.45;;
27505;SDS011;14939;43.596;1.320;2022-09-28T04:47:23;3.10;;;1.20;;
27505;SDS011;14939;43.596;1.320;2022-09-28T04:49:49;1.05;;;0.52;;
27505;SDS011;14939;43.596;1.320;2022-09-28T04:52:15;2.42;;;0.55;;
27505;SDS011;14939;43.596;1.320;2022-09-28T04:54:40;0.55;;;0.35;;
27505;SDS011;14939;43.596;1.320;2022-09-28T04:57:06;0.47;;;0.40;;
27505;SDS011;14939;43.596;1.320;2022-09-28T04:59:32;0.80;;;0.40;;
27505;SDS011;14939;43.596;1.320;2022-09-28T05:01:58;1.67;;;0.60;;
27505;SDS011;14939;43.596;1.320;2022-09-28T05:04:23;1.63;;;0.70;;
27505;SDS011;14939;43.596;1.320;2022-09-28T05:06:49;3.15;;;0.82;;
27505;SDS011;14939;43.596;1.320;2022-09-28T05:09:15;2.35;;;0.90;;
27505;SDS011;14939;43.596;1.320;2022-09-28T05:11:40;1.50;;;0.90;;
27505;SDS011;14939;43.596;1.320;2022-09-28T05:14:06;5.63;;;1.10;;
27505;SDS011;14939;43.596;1.320;2022-09-28T05:16:32;4.10;;;1.00;;
27505;SDS011;14939;43.596;1.320;2022-09-28T05:18:58;4.60;;;1.50;;
27505;SDS011;14939;43.596;1.320;2022-09-28T05:21:24;4.95;;;1.48;;
27505;SDS011;14939;43.596;1.320;2022-09-28T05:23:51;3.78;;;1.60;;
27505;SDS011;14939;43.596;1.320;2022-09-28T05:26:20;5.97;;;2.00;;
27505;SDS011;14939;43.596;1.320;2022-09-28T05:28:46;6.88;;;1.70;;
27505;SDS011;14939;43.596;1.320;2022-09-28T05:31:12;4.15;;;1.50;;
27505;SDS011;14939;43.596;1.320;2022-09-28T05:33:38;4.03;;;1.30;;
27505;SDS011;14939;43.596;1.320;2022-09-28T05:36:03;4.95;;;1.40;;
27505;SDS011;14939;43.596;1.320;2022-09-28T05:38:32;7.05;;;1.42;;
27505;SDS011;14939;43.596;1.320;2022-09-28T05:40:58;5.55;;;1.40;;
27505;SDS011;14939;43.596;1.320;2022-09-28T05:43:24;5.22;;;1.40;;
27505;SDS011;14939;43.596;1.320;2022-09-28T05:45:49;2.67;;;1.48;;
27505;SDS011;14939;43.596;1.320;2022-09-28T05:48:15;2.17;;;1.15;;
27505;SDS011;14939;43.596;1.320;2022-09-28T05:50:41;2.10;;;1.30;;
27505;SDS011;14939;43.596;1.320;2022-09-28T05:53:07;3.35;;;1.45;;
27505;SDS011;14939;43.596;1.320;2022-09-28T05:55:34;4.10;;;1.10;;
27505;SDS011;14939;43.596;1.320;2022-09-28T05:58:02;2.33;;;1.20;;
27505;SDS011;14939;43.596;1.320;2022-09-28T06:00:30;2.25;;;1.30;;
27505;SDS011;14939;43.596;1.320;2022-09-28T06:02:57;2.67;;;1.30;;
27505;SDS011;14939;43.596;1.320;2022-09-28T06:05:24;4.18;;;1.30;;
27505;SDS011;14939;43.596;1.320;2022-09-28T06:07:51;4.40;;;1.50;;
27505;SDS011;14939;43.596;1.320;2022-09-28T06:10:19;3.58;;;1.20;;
27505;SDS011;14939;43.596;1.320;2022-09-28T06:12:44;8.82;;;1.60;;
27505;SDS011;14939;43.596;1.320;2022-09-28T06:15:12;4.53;;;1.48;;
27505;SDS011;14939;43.596;1.320;2022-09-28T06:17:39;4.00;;;1.48;;
27505;SDS011;14939;43.596;1.320;2022-09-28T06:20:04;5.43;;;1.35;;
27505;SDS011;14939;43.596;1.320;2022-09-28T06:22:30;4.63;;;1.50;;
27505;SDS011;14939;43.596;1.320;2022-09-28T06:24:56;5.63;;;1.90;;
27505;SDS011;14939;43.596;1.320;2022-09-28T06:27:22;6.85;;;1.83;;
27505;SDS011;14939;43.596;1.320;2022-09-28T06:29:47;8.50;;;2.80;;
27505;SDS011;14939;43.596;1.320;2022-09-28T06:32:13;8.82;;;2.70;;
27505;SDS011;14939;43.596;1.320;2022-09-28T06:34:38;7.57;;;2.25;;
27505;SDS011;14939;43.596;1.320;2022-09-28T06:37:06;10.27;;;2.60;;
27505;SDS011;14939;43.596;1.320;2022-09-28T06:39:31;8.88;;;2.50;;
27505;SDS011;14939;43.596;1.320;2022-09-28T06:41:57;10.15;;;2.33;;
27505;SDS011;14939;43.596;1.320;2022-09-28T06:44:28;9.15;;;2.88;;
27505;SDS011;14939;43.596;1.320;2022-09-28T06:46:54;6.97;;;2.70;;
27505;SDS011;14939;43.596;1.320;2022-09-28T06:49:20;10.88;;;2.67;;
27505;SDS011;14939;43.596;1.320;2022-09-28T06:51:46;6.35;;;1.70;;
27505;SDS011;14939;43.596;1.320;2022-09-28T06:54:12;8.55;;;1.92;;
27505;SDS011;14939;43.596;1.320;2022-09-28T06:56:38;6.30;;;1.80;;
27505;SDS011;14939;43.596;1.320;2022-09-28T06:59:04;7.10;;;2.00;;
27505;SDS011;14939;43.596;1.320;2022-09-28T07:01:30;6.30;;;1.65;;
27505;SDS011;14939;43.596;1.320;2022-09-28T07:03:56;5.45;;;1.33;;
27505;SDS011;14939;43.596;1.320;2022-09-28T07:06:22;3.67;;;1.20;;
27505;SDS011;14939;43.596;1.320;2022-09-28T07:08:50;4.15;;;1.45;;
27505;SDS011;14939;43.596;1.320;2022-09-28T07:11:16;6.53;;;1.08;;
27505;SDS011;14939;43.596;1.320;2022-09-28T07:13:44;3.03;;;1.27;;
27505;SDS011;14939;43.596;1.320;2022-09-28T07:16:09;6.47;;;1.33;;
27505;SDS011;14939;43.596;1.320;2022-09-28T07:18:36;4.65;;;1.17;;
27505;SDS011;14939;43.596;1.320;2022-09-28T07:21:02;5.18;;;1.30;;
27505;SDS011;14939;43.596;1.320;2022-09-28T07:23:31;5.82;;;1.55;;
27505;SDS011;14939;43.596;1.320;2022-09-28T07:25:57;5.82;;;1.60;;
27505;SDS011;14939;43.596;1.320;2022-09-28T07:28:28;5.05;;;1.63;;
27505;SDS011;14939;43.596;1.320;2022-09-28T07:30:55;5.53;;;1.50;;
27505;SDS011;14939;43.596;1.320;2022-09-28T07:33:21;6.30;;;1.92;;
27505;SDS011;14939;43.596;1.320;2022-09-28T07:35:52;3.83;;;1.33;;
27505;SDS011;14939;43.596;1.320;2022-09-28T07:38:19;4.20;;;1.48;;
27505;SDS011;14939;43.596;1.320;2022-09-28T07:40:45;6.35;;;1.67;;
27505;SDS011;14939;43.596;1.320;2022-09-28T07:43:29;7.63;;;2.20;;
27505;SDS011;14939;43.596;1.320;2022-09-28T07:45:56;3.22;;;1.80;;
27505;SDS011;14939;43.596;1.320;2022-09-28T07:48:23;6.45;;;1.98;;
27505;SDS011;14939;43.596;1.320;2022-09-28T07:50:53;4.68;;;1.63;;
27505;SDS011;14939;43.596;1.320;2022-09-28T07:53:21;3.00;;;0.97;;
27505;SDS011;14939;43.596;1.320;2022-09-28T07:55:52;4.88;;;1.35;;
27505;SDS011;14939;43.596;1.320;2022-09-28T07:58:19;2.90;;;0.98;;
27505;SDS011;14939;43.596;1.320;2022-09-28T08:00:45;4.47;;;1.02;;
27505;SDS011;14939;43.596;1.320;2022-09-28T08:03:14;7.10;;;1.52;;
27505;SDS011;14939;43.596;1.320;2022-09-28T08:05:41;3.60;;;1.10;;
27505;SDS011;14939;43.596;1.320;2022-09-28T08:08:08;2.58;;;1.05;;
27505;SDS011;14939;43.596;1.320;2022-09-28T08:10:34;3.75;;;1.00;;
27505;SDS011;14939;43.596;1.320;2022-09-28T08:13:01;6.65;;;1.30;;
27505;SDS011;14939;43.596;1.320;2022-09-28T08:15:28;4.88;;;1.10;;
27505;SDS011;14939;43.596;1.320;2022-09-28T08:18:02;6.97;;;1.20;;
27505;SDS011;14939;43.596;1.320;2022-09-28T08:20:28;8.32;;;1.67;;
27505;SDS011;14939;43.596;1.320;2022-09-28T08:23:14;6.97;;;1.90;;
27505;SDS011;14939;43.596;1.320;2022-09-28T08:25:44;8.35;;;1.80;;
27505;SDS011;14939;43.596;1.320;2022-09-28T08:28:13;7.18;;;1.77;;
27505;SDS011;14939;43.596;1.320;2022-09-28T08:30:41;8.18;;;1.90;;
27505;SDS011;14939;43.596;1.320;2022-09-28T08:33:09;8.77;;;1.60;;
27505;SDS011;14939;43.596;1.320;2022-09-28T08:35:36;11.02;;;1.88;;
27505;SDS011;14939;43.596;1.320;2022-09-28T08:38:01;7.13;;;1.63;;
27505;SDS011;14939;43.596;1.320;2022-09-28T08:40:27;9.55;;;1.80;;
27505;SDS011;14939;43.596;1.320;2022-09-28T08:42:59;9.25;;;1.88;;
27505;SDS011;14939;43.596;1.320;2022-09-28T08:45:30;11.82;;;1.95;;
27505;SDS011;14939;43.596;1.320;2022-09-28T08:48:05;8.13;;;1.70;;
27505;SDS011;14939;43.596;1.320;2022-09-28T08:50:58;7.82;;;1.73;;
27505;SDS011;14939;43.596;1.320;2022-09-28T08:53:41;10.55;;;2.30;;
27505;SDS011;14939;43.596;1.320;2022-09-28T08:59:03;9.63;;;2.50;;
27505;SDS011;14939;43.596;1.320;2022-09-28T09:01:38;10.48;;;2.67;;
27505;SDS011;14939;43.596;1.320;2022-09-28T09:04:09;11.57;;;2.60;;
27505;SDS011;14939;43.596;1.320;2022-09-28T09:06:38;15.57;;;2.58;;
27505;SDS011;14939;43.596;1.320;2022-09-28T09:20:41;9.55;;;2.50;;
27505;SDS011;14939;43.596;1.320;2022-09-28T09:26:16;11.48;;;2.13;;
27505;SDS011;14939;43.596;1.320;2022-09-28T09:34:37;12.70;;;2.33;;
27505;SDS011;14939;43.596;1.320;2022-09-28T09:48:28;13.05;;;1.98;;
27505;SDS011;14939;43.596;1.320;2022-09-28T09:51:03;12.38;;;1.95;;
27505;SDS011;14939;43.596;1.320;2022-09-28T09:53:41;9.75;;;1.90;;
27505;SDS011;14939;43.596;1.320;2022-09-28T09:56:30;8.68;;;1.60;;
27505;SDS011;14939;43.596;1.320;2022-09-28T09:59:04;6.13;;;1.20;;
27505;SDS011;14939;43.596;1.320;2022-09-28T10:01:57;9.57;;;1.50;;
27505;SDS011;14939;43.596;1.320;2022-09-28T10:04:39;6.95;;;1.27;;
27505;SDS011;14939;43.596;1.320;2022-09-28T10:07:08;7.78;;;1.45;;
27505;SDS011;14939;43.596;1.320;2022-09-28T10:09:47;6.03;;;1.42;;
27505;SDS011;14939;43.596;1.320;2022-09-28T10:12:17;6.20;;;1.40;;
27505;SDS011;14939;43.596;1.320;2022-09-28T10:14:44;8.15;;;1.58;;
27505;SDS011;14939;43.596;1.320;2022-09-28T10:17:11;7.43;;;1.55;;
27505;SDS011;14939;43.596;1.320;2022-09-28T10:19:40;9.75;;;1.92;;
27505;SDS011;14939;43.596;1.320;2022-09-28T10:22:08;11.77;;;2.03;;
27505;SDS011;14939;43.596;1.320;2022-09-28T10:24:41;11.98;;;2.65;;
27505;SDS011;14939;43.596;1.320;2022-09-28T10:27:14;16.52;;;3.03;;
27505;SDS011;14939;43.596;1.320;2022-09-28T10:29:54;14.10;;;2.60;;
27505;SDS011;14939;43.596;1.320;2022-09-28T10:32:22;16.67;;;3.53;;
27505;SDS011;14939;43.596;1.320;2022-09-28T10:34:49;11.68;;;3.08;;
27505;SDS011;14939;43.596;1.320;2022-09-28T10:37:16;20.42;;;3.20;;
27505;SDS011;14939;43.596;1.320;2022-09-28T10:39:48;17.08;;;2.72;;
27505;SDS011;14939;43.596;1.320;2022-09-28T10:42:25;15.38;;;2.65;;
27505;SDS011;14939;43.596;1.320;2022-09-28T10:47:49;15.07;;;2.50;;
27505;SDS011;14939;43.596;1.320;2022-09-28T10:50:19;13.45;;;2.78;;
27505;SDS011;14939;43.596;1.320;2022-09-28T10:52:50;12.73;;;2.70;;
27505;SDS011;14939;43.596;1.320;2022-09-28T10:55:26;11.68;;;2.50;;
27505;SDS011;14939;43.596;1.320;2022-09-28T10:57:57;14.18;;;2.55;;
27505;SDS011;14939;43.596;1.320;2022-09-28T11:00:38;39.42;;;2.97;;
27505;SDS011;14939;43.596;1.320;2022-09-28T11:03:05;15.77;;;2.95;;
27505;SDS011;14939;43.596;1.320;2022-09-28T11:05:42;9.43;;;1.55;;
27505;SDS011;14939;43.596;1.320;2022-09-28T11:08:24;4.82;;;1.10;;
27505;SDS011;14939;43.596;1.320;2022-09-28T11:11:13;6.53;;;1.33;;
27505;SDS011;14939;43.596;1.320;2022-09-28T11:13:47;5.03;;;1.10;;
27505;SDS011;14939;43.596;1.320;2022-09-28T11:16:19;8.02;;;1.27;;
27505;SDS011;14939;43.596;1.320;2022-09-28T11:18:56;5.10;;;1.60;;
27505;SDS011;14939;43.596;1.320;2022-09-28T11:21:28;8.25;;;1.60;;
27505;SDS011;14939;43.596;1.320;2022-09-28T11:24:05;6.95;;;1.30;;
27505;SDS011;14939;43.596;1.320;2022-09-28T11:26:43;8.50;;;1.13;;
27505;SDS011;14939;43.596;1.320;2022-09-28T11:32:00;3.42;;;0.93;;
27505;SDS011;14939;43.596;1.320;2022-09-28T11:34:33;3.72;;;0.88;;
27505;SDS011;14939;43.596;1.320;2022-09-28T11:42:27;4.70;;;0.90;;
27505;SDS011;14939;43.596;1.320;2022-09-28T11:45:31;4.40;;;1.00;;
27505;SDS011;14939;43.596;1.320;2022-09-28T11:48:12;5.32;;;1.00;;
27505;SDS011;14939;43.596;1.320;2022-09-28T11:50:51;2.75;;;0.82;;
27505;SDS011;14939;43.596;1.320;2022-09-28T11:53:41;5.95;;;1.05;;
27505;SDS011;14939;43.596;1.320;2022-09-28T11:56:16;9.02;;;1.00;;
27505;SDS011;14939;43.596;1.320;2022-09-28T11:59:04;5.05;;;0.90;;
27505;SDS011;14939;43.596;1.320;2022-09-28T12:04:32;8.32;;;1.45;;
27505;SDS011;14939;43.596;1.320;2022-09-28T12:07:26;7.70;;;1.70;;
27505;SDS011;14939;43.596;1.320;2022-09-28T12:12:31;3.83;;;0.82;;
27505;SDS011;14939;43.596;1.320;2022-09-28T12:15:22;6.93;;;1.23;;
27505;SDS011;14939;43.596;1.320;2022-09-28T12:20:34;4.15;;;0.90;;
27505;SDS011;14939;43.596;1.320;2022-09-28T12:23:12;5.55;;;1.27;;
27505;SDS011;14939;43.596;1.320;2022-09-28T12:25:43;3.60;;;0.60;;
27505;SDS011;14939;43.596;1.320;2022-09-28T12:28:32;4.90;;;0.70;;
27505;SDS011;14939;43.596;1.320;2022-09-28T12:31:04;4.35;;;0.90;;
27505;SDS011;14939;43.596;1.320;2022-09-28T12:33:41;3.92;;;0.57;;
27505;SDS011;14939;43.596;1.320;2022-09-28T12:44:54;1.70;;;0.50;;
27505;SDS011;14939;43.596;1.320;2022-09-28T12:53:33;0.70;;;0.40;;
27505;SDS011;14939;43.596;1.320;2022-09-28T12:56:17;1.83;;;0.35;;
27505;SDS011;14939;43.596;1.320;2022-09-28T13:04:34;1.45;;;0.30;;
27505;SDS011;14939;43.596;1.320;2022-09-28T13:07:09;2.45;;;0.40;;
27505;SDS011;14939;43.596;1.320;2022-09-28T13:09:45;2.73;;;0.40;;
27505;SDS011;14939;43.596;1.320;2022-09-28T13:12:31;2.70;;;0.60;;
27505;SDS011;14939;43.596;1.320;2022-09-28T13:15:25;3.03;;;0.50;;
27505;SDS011;14939;43.596;1.320;2022-09-28T13:21:12;0.95;;;0.40;;
27505;SDS011;14939;43.596;1.320;2022-09-28T13:23:43;0.70;;;0.35;;
27505;SDS011;14939;43.596;1.320;2022-09-28T13:26:25;2.08;;;0.60;;
27505;SDS011;14939;43.596;1.320;2022-09-28T13:29:00;1.15;;;0.50;;
27505;SDS011;14939;43.596;1.320;2022-09-28T13:31:29;4.43;;;0.70;;
27505;SDS011;14939;43.596;1.320;2022-09-28T13:33:58;3.47;;;0.80;;
27505;SDS011;14939;43.596;1.320;2022-09-28T13:38:53;2.10;;;0.82;;
27505;SDS011;14939;43.596;1.320;2022-09-28T13:51:35;3.92;;;1.27;;
27505;SDS011;14939;43.596;1.320;2022-09-28T13:59:50;1.77;;;0.80;;
27505;SDS011;14939;43.596;1.320;2022-09-28T14:16:36;4.68;;;0.90;;
27505;SDS011;14939;43.596;1.320;2022-09-28T14:24:32;3.85;;;0.85;;
27505;SDS011;14939;43.596;1.320;2022-09-28T14:30:25;4.35;;;1.10;;
27505;SDS011;14939;43.596;1.320;2022-09-28T14:33:16;2.70;;;0.60;;
27505;SDS011;14939;43.596;1.320;2022-09-28T14:35:48;3.58;;;0.68;;
27505;SDS011;14939;43.596;1.320;2022-09-28T14:38:22;3.20;;;0.82;;
27505;SDS011;14939;43.596;1.320;2022-09-28T14:41:31;4.60;;;0.90;;
27505;SDS011;14939;43.596;1.320;2022-09-28T14:54:18;5.25;;;1.13;;
27505;SDS011;14939;43.596;1.320;2022-09-28T14:59:18;9.80;;;1.65;;
27505;SDS011;14939;43.596;1.320;2022-09-28T15:01:49;10.15;;;1.60;;
27505;SDS011;14939;43.596;1.320;2022-09-28T15:04:29;6.97;;;1.30;;
27505;SDS011;14939;43.596;1.320;2022-09-28T15:06:59;8.65;;;1.52;;
27505;SDS011;14939;43.596;1.320;2022-09-28T15:09:26;7.38;;;1.33;;
27505;SDS011;14939;43.596;1.320;2022-09-28T15:12:02;8.10;;;1.40;;
27505;SDS011;14939;43.596;1.320;2022-09-28T15:14:44;5.93;;;1.05;;
27505;SDS011;14939;43.596;1.320;2022-09-28T15:17:20;9.70;;;1.95;;
27505;SDS011;14939;43.596;1.320;2022-09-28T15:22:44;7.43;;;1.45;;
27505;SDS011;14939;43.596;1.320;2022-09-28T15:25:11;8.88;;;1.80;;
27505;SDS011;14939;43.596;1.320;2022-09-28T15:27:39;7.88;;;1.42;;
27505;SDS011;14939;43.596;1.320;2022-09-28T15:32:43;6.32;;;1.40;;
27505;SDS011;14939;43.596;1.320;2022-09-28T15:35:13;9.38;;;1.70;;
27505;SDS011;14939;43.596;1.320;2022-09-28T15:37:44;6.72;;;2.00;;
27505;SDS011;14939;43.596;1.320;2022-09-28T15:40:16;7.43;;;1.65;;
27505;SDS011;14939;43.596;1.320;2022-09-28T15:43:04;14.27;;;2.03;;
27505;SDS011;14939;43.596;1.320;2022-09-28T15:45:58;7.28;;;1.90;;
27505;SDS011;14939;43.596;1.320;2022-09-28T15:51:04;8.20;;;2.15;;
27505;SDS011;14939;43.596;1.320;2022-09-28T15:53:35;8.60;;;1.70;;
27505;SDS011;14939;43.596;1.320;2022-09-28T15:56:11;10.80;;;2.08;;
27505;SDS011;14939;43.596;1.320;2022-09-28T15:58:37;6.32;;;1.85;;
27505;SDS011;14939;43.596;1.320;2022-09-28T16:03:44;10.40;;;1.77;;
27505;SDS011;14939;43.596;1.320;2022-09-28T16:06:09;11.52;;;2.22;;
27505;SDS011;14939;43.596;1.320;2022-09-28T16:11:17;12.48;;;2.30;;
27505;SDS011;14939;43.596;1.320;2022-09-28T16:16:42;9.98;;;1.90;;
27505;SDS011;14939;43.596;1.320;2022-09-28T16:19:35;13.23;;;2.17;;
27505;SDS011;14939;43.596;1.320;2022-09-28T16:22:01;12.95;;;2.40;;
27505;SDS011;14939;43.596;1.320;2022-09-28T16:24:31;12.10;;;1.92;;
27505;SDS011;14939;43.596;1.320;2022-09-28T16:27:03;9.90;;;2.13;;
27505;SDS011;14939;43.596;1.320;2022-09-28T16:29:33;9.27;;;1.70;;
27505;SDS011;14939;43.596;1.320;2022-09-28T16:35:06;9.90;;;1.95;;
27505;SDS011;14939;43.596;1.320;2022-09-28T16:38:12;13.45;;;2.08;;
27505;SDS011;14939;43.596;1.320;2022-09-28T16:40:48;10.70;;;1.80;;
27505;SDS011;14939;43.596;1.320;2022-09-28T16:43:17;11.55;;;2.08;;
27505;SDS011;14939;43.596;1.320;2022-09-28T16:45:51;12.85;;;2.20;;
27505;SDS011;14939;43.596;1.320;2022-09-28T16:48:21;10.30;;;1.98;;
27505;SDS011;14939;43.596;1.320;2022-09-28T16:50:52;9.95;;;2.05;;
27505;SDS011;14939;43.596;1.320;2022-09-28T16:53:18;12.50;;;2.15;;
27505;SDS011;14939;43.596;1.320;2022-09-28T16:56:02;9.93;;;1.52;;
27505;SDS011;14939;43.596;1.320;2022-09-28T16:58:29;12.30;;;2.13;;
27505;SDS011;14939;43.596;1.320;2022-09-28T17:00:55;8.05;;;1.90;;
27505;SDS011;14939;43.596;1.320;2022-09-28T17:03:22;11.55;;;2.20;;
27505;SDS011;14939;43.596;1.320;2022-09-28T17:05:49;10.48;;;1.92;;
27505;SDS011;14939;43.596;1.320;2022-09-28T17:08:17;11.30;;;2.10;;
27505;SDS011;14939;43.596;1.320;2022-09-28T17:10:51;14.77;;;2.28;;
27505;SDS011;14939;43.596;1.320;2022-09-28T17:13:22;11.18;;;2.00;;
27505;SDS011;14939;43.596;1.320;2022-09-28T17:15:57;9.77;;;1.92;;
27505;SDS011;14939;43.596;1.320;2022-09-28T17:18:30;14.63;;;2.28;;
27505;SDS011;14939;43.596;1.320;2022-09-28T17:20:56;14.95;;;2.22;;
27505;SDS011;14939;43.596;1.320;2022-09-28T17:23:27;10.07;;;2.60;;
27505;SDS011;14939;43.596;1.320;2022-09-28T17:25:52;10.60;;;1.77;;
27505;SDS011;14939;43.596;1.320;2022-09-28T17:28:21;15.85;;;2.45;;
27505;SDS011;14939;43.596;1.320;2022-09-28T17:30:49;15.00;;;2.50;;
27505;SDS011;14939;43.596;1.320;2022-09-28T17:33:15;13.57;;;2.90;;
27505;SDS011;14939;43.596;1.320;2022-09-28T17:35:41;12.60;;;2.55;;
27505;SDS011;14939;43.596;1.320;2022-09-28T17:38:09;15.57;;;2.55;;
27505;SDS011;14939;43.596;1.320;2022-09-28T17:40:36;18.17;;;3.25;;
27505;SDS011;14939;43.596;1.320;2022-09-28T17:43:02;17.10;;;2.72;;
27505;SDS011;14939;43.596;1.320;2022-09-28T17:45:29;17.20;;;2.47;;
27505;SDS011;14939;43.596;1.320;2022-09-28T17:47:56;19.67;;;2.90;;
27505;SDS011;14939;43.596;1.320;2022-09-28T17:52:50;18.63;;;3.25;;
27505;SDS011;14939;43.596;1.320;2022-09-28T17:55:17;20.30;;;3.10;;
27505;SDS011;14939;43.596;1.320;2022-09-28T17:57:47;18.08;;;2.47;;
27505;SDS011;14939;43.596;1.320;2022-09-28T18:00:13;13.40;;;2.60;;
27505;SDS011;14939;43.596;1.320;2022-09-28T18:02:40;14.82;;;2.55;;
27505;SDS011;14939;43.596;1.320;2022-09-28T18:05:05;16.27;;;2.60;;
27505;SDS011;14939;43.596;1.320;2022-09-28T18:07:31;19.95;;;2.90;;
27505;SDS011;14939;43.596;1.320;2022-09-28T18:09:58;13.05;;;2.80;;
27505;SDS011;14939;43.596;1.320;2022-09-28T18:12:25;17.33;;;2.58;;
27505;SDS011;14939;43.596;1.320;2022-09-28T18:14:51;16.15;;;2.70;;
27505;SDS011;14939;43.596;1.320;2022-09-28T18:17:17;19.33;;;2.85;;